Burr Ridge, Illinois
Current Conditions -  °F | °C
As of 9:53 PM on Thursday 27 Nov 2014 (Local Time) from KMDW Reporting Station
Few Clouds Few Clouds  
Wind Chill: 13°   Ceiling: Unl
Heat Index: 20°   Visibility: 10mi
Dew Point: 10°   Wind: 5mph
Humidity: 65%   Direction: 330°NNW
Pressure: 30.41"   Gusts: NA
Location:  41.755°N, 87.9282°W
Report Text: KMDW 280353Z 33004KT 10SM FEW035 FEW250 M07/M12 A3041 RMK AO2 SLP312 T10671122
Loading
Personal Weather Stations






























Interactive Weather Map New forecast layout! Learn more

10-Day Weather Forecast

Advertisements
Track Severe Weather on mobile